Time;durP1;ratioP1;P1;durP2;ratioP2;P2;SDS_P1;SDS_P2;PMS_P1;PMS_P2;Temp;Humidity;BMP_temperature;BMP_pressure;BME280_temperature;BME280_humidity;BME280_pressure;Samples;Min_cycle;Max_cycle;Signal;HPM_P1;HPM_P2
2022/06/29 00:00:21;;;;;;;;;;;;;;;28.54;46.90;98370.78;2089199;28;19942;-47
2022/06/29 00:01:23;;;;;;;;;;;;;;;28.56;46.96;98377.59;2091267;28;19924;-48
2022/06/29 00:02:25;;;;;;;;;;;;;;;28.56;47.18;98385.78;2087312;28;19939;-48
2022/06/29 00:03:25;;;;;;;;;;;;;;;28.55;47.21;98370.50;2090038;28;20563;-48
2022/06/29 00:04:27;;;;;;;;;;;;;;;28.58;47.01;98372.66;2090755;28;19934;-48
2022/06/29 00:05:29;;;;;;;;;;;;;;;28.57;46.96;98371.03;2092507;28;19928;-46
2022/06/29 00:06:29;;;;;;;;;;;;;;;28.58;46.80;98372.66;2089672;28;19932;-50
2022/06/29 00:07:31;;;;;;;;;;;;;;;28.57;47.04;98370.22;2090170;28;20528;-47
2022/06/29 00:08:33;;;;;;;;;;;;;;;28.57;47.14;98365.59;2085597;28;19935;-51
2022/06/29 00:09:33;;;;;;;;;;;;;;;28.55;47.08;98365.03;2085940;28;19940;-48
2022/06/29 00:10:35;;;;;;;;;;;;;;;28.56;47.19;98365.88;2091147;28;19931;-49
2022/06/29 00:11:36;;;;;;;;;;;;;;;28.56;47.25;98363.16;2091219;28;19940;-47
2022/06/29 00:12:37;;;;;;;;;;;;;;;28.55;46.96;98367.78;2090568;28;20582;-51
2022/06/29 00:13:38;;;;;;;;;;;;;;;28.56;46.87;98363.97;2092129;28;20421;-48
2022/06/29 00:14:42;;;;;;;;;;;;;;;28.55;47.04;98369.69;2089554;28;19932;-48
2022/06/29 00:15:44;;;;;;;;;;;;;;;28.56;46.79;98368.63;2093009;28;19974;-50
2022/06/29 00:16:46;;;;;;;;;;;;;;;28.57;46.99;98359.31;2092137;28;20019;-54
2022/06/29 00:17:48;;;;;;;;;;;;;;;28.56;47.03;98363.97;2091602;28;19925;-50
2022/06/29 00:18:49;;;;;;;;;;;;;;;28.55;46.87;98367.78;2091178;28;20143;-50
2022/06/29 00:19:51;;;;;;;;;;;;;;;28.56;47.19;98365.88;2088569;28;20023;-51
2022/06/29 00:20:52;;;;;;;;;;;;;;;28.55;46.89;98367.78;2089688;28;19993;-47
2022/06/29 00:21:53;;;;;;;;;;;;;;;28.55;47.08;98369.69;2089795;28;19951;-46
2022/06/29 00:22:54;;;;;;;;;;;;;;;28.55;47.21;98366.97;2085638;28;19925;-50
2022/06/29 00:23:55;;;;;;;;;;;;;;;28.54;47.19;98370.78;2085162;28;19939;-49
2022/06/29 00:24:57;;;;;;;;;;;;;;;28.53;47.21;98375.44;2089472;28;19928;-47
2022/06/29 00:25:57;;;;;;;;;;;;;;;28.52;47.06;98368.31;2089107;28;19928;-47
2022/06/29 00:26:59;;;;;;;;;;;;;;;28.54;47.00;98368.88;2088077;28;20401;-48
2022/06/29 00:28:00;;;;;;;;;;;;;;;28.54;47.01;98370.78;2089378;28;19925;-50
2022/06/29 00:29:01;;;;;;;;;;;;;;;28.53;46.91;98367.25;2086327;28;19936;-47
2022/06/29 00:30:03;;;;;;;;;;;;;;;28.53;47.05;98372.69;2090780;28;19924;-51
2022/06/29 00:31:05;;;;;;;;;;;;;;;28.51;47.13;98378.41;2091812;28;19991;-51
2022/06/29 00:32:08;;;;;;;;;;;;;;;28.51;46.88;98375.69;2086981;28;19935;-51
2022/06/29 00:33:09;;;;;;;;;;;;;;;28.54;47.08;98381.69;2089678;28;19928;-46
2022/06/29 00:34:10;;;;;;;;;;;;;;;28.52;47.16;98373.78;2088518;28;21126;-48
2022/06/29 00:35:11;;;;;;;;;;;;;;;28.50;47.45;98375.97;2088854;28;19939;-47
2022/06/29 00:36:13;;;;;;;;;;;;;;;28.51;47.28;98377.63;2088773;28;19935;-46
2022/06/29 00:37:13;;;;;;;;;;;;;;;28.50;46.89;98375.97;2086211;28;19928;-48
2022/06/29 00:38:15;;;;;;;;;;;;;;;28.49;47.06;98380.59;2086460;28;19932;-51
2022/06/29 00:39:16;;;;;;;;;;;;;;;28.50;47.07;98381.41;2090055;28;19928;-48
2022/06/29 00:40:17;;;;;;;;;;;;;;;28.51;47.31;98383.06;2087531;28;19928;-49
2022/06/29 00:41:18;;;;;;;;;;;;;;;28.51;47.12;98383.88;2089507;28;20512;-47
2022/06/29 00:42:20;;;;;;;;;;;;;;;28.50;47.18;98387.72;2087824;28;20016;-48
2022/06/29 00:43:20;;;;;;;;;;;;;;;28.48;46.99;98378.97;2090266;28;19925;-47
2022/06/29 00:44:22;;;;;;;;;;;;;;;28.50;47.00;98386.88;2088891;28;19954;-46
2022/06/29 00:45:23;;;;;;;;;;;;;;;28.50;47.18;98393.16;2086066;28;19933;-48
2022/06/29 00:46:24;;;;;;;;;;;;;;;28.50;47.15;98384.97;2091047;28;19928;-49
2022/06/29 00:47:27;;;;;;;;;;;;;;;28.50;47.19;98387.72;2088555;28;20756;-49
2022/06/29 00:48:28;;;;;;;;;;;;;;;28.51;47.05;98383.88;2090645;28;20701;-49
2022/06/29 00:49:29;;;;;;;;;;;;;;;28.49;46.94;98385.25;2090552;28;19944;-52
2022/06/29 00:50:32;;;;;;;;;;;;;;;28.50;46.98;98384.97;2089358;28;19947;-48
2022/06/29 00:51:34;;;;;;;;;;;;;;;28.49;47.34;98382.53;2090455;28;19925;-47
2022/06/29 00:52:37;;;;;;;;;;;;;;;28.49;46.99;98379.78;2085482;28;19932;-47
2022/06/29 00:53:41;;;;;;;;;;;;;;;28.47;47.28;98387.41;2087615;28;20714;-46
2022/06/29 00:54:44;;;;;;;;;;;;;;;28.47;47.09;98390.16;2088232;28;19951;-45
2022/06/29 00:55:47;;;;;;;;;;;;;;;28.47;47.07;98388.25;2089698;28;20522;-51
2022/06/29 00:56:48;;;;;;;;;;;;;;;28.47;47.20;98393.72;2090534;28;19956;-50
2022/06/29 00:57:51;;;;;;;;;;;;;;;28.48;47.25;98387.16;2092906;28;19931;-49
2022/06/29 00:58:54;;;;;;;;;;;;;;;28.48;47.01;98384.44;2089767;28;20037;-49
2022/06/29 00:59:57;;;;;;;;;;;;;;;28.47;47.20;98385.53;2089777;28;20003;-49
2022/06/29 01:01:00;;;;;;;;;;;;;;;28.49;47.20;98379.78;2089072;28;19924;-49
2022/06/29 01:02:04;;;;;;;;;;;;;;;28.49;47.16;98387.97;2091279;28;20410;-49
2022/06/29 01:03:07;;;;;;;;;;;;;;;28.48;47.34;98380.91;2090236;28;22401;-48
2022/06/29 01:04:09;;;;;;;;;;;;;;;28.49;46.94;98385.25;2091157;28;20367;-47
2022/06/29 01:05:10;;;;;;;;;;;;;;;28.47;47.16;98382.81;2088461;28;19932;-50
2022/06/29 01:06:12;;;;;;;;;;;;;;;28.48;47.15;98381.69;2090157;28;19924;-47
2022/06/29 01:07:13;;;;;;;;;;;;;;;28.50;47.16;98386.88;2090784;28;20038;-46
2022/06/29 01:08:15;;;;;;;;;;;;;;;28.46;47.15;98380.34;2087476;28;19944;-48
2022/06/29 01:09:15;;;;;;;;;;;;;;;28.46;47.13;98383.88;2091068;28;19955;-46
2022/06/29 01:10:17;;;;;;;;;;;;;;;28.47;47.21;98384.69;2089382;28;20418;-49
2022/06/29 01:11:17;;;;;;;;;;;;;;;28.46;47.23;98386.59;2090589;28;19944;-45
2022/06/29 01:12:19;;;;;;;;;;;;;;;28.46;47.43;98388.53;2087670;28;19952;-50
2022/06/29 01:13:19;;;;;;;;;;;;;;;28.46;47.23;98394.78;2089070;28;19935;-47
2022/06/29 01:14:21;;;;;;;;;;;;;;;28.46;47.07;98383.06;2086953;28;19970;-49
2022/06/29 01:15:23;;;;;;;;;;;;;;;28.48;47.01;98386.34;2088660;28;19975;-49
2022/06/29 01:16:23;;;;;;;;;;;;;;;28.49;46.91;98387.97;2090601;28;19932;-48
2022/06/29 01:17:25;;;;;;;;;;;;;;;28.47;47.22;98384.69;2090845;28;19928;-48
2022/06/29 01:18:27;;;;;;;;;;;;;;;28.45;47.07;98386.91;2087334;28;19924;-48
2022/06/29 01:19:29;;;;;;;;;;;;;;;28.46;47.29;98396.72;2090886;28;20031;-47
2022/06/29 01:20:30;;;;;;;;;;;;;;;28.45;46.95;98390.44;2085745;28;20334;-52
2022/06/29 01:21:33;;;;;;;;;;;;;;;28.44;47.25;98387.97;2087996;28;19933;-48
2022/06/29 01:22:36;;;;;;;;;;;;;;;28.46;47.06;98391.25;2088305;28;20398;-49
2022/06/29 01:23:36;;;;;;;;;;;;;;;28.45;47.21;98389.63;2088939;28;20338;-49
2022/06/29 01:24:39;;;;;;;;;;;;;;;28.46;47.13;98393.97;2088329;28;19929;-48
2022/06/29 01:25:39;;;;;;;;;;;;;;;28.47;47.16;98392.88;2090703;28;19932;-46
2022/06/29 01:26:41;;;;;;;;;;;;;;;28.46;46.96;98391.25;2088591;28;21333;-47
2022/06/29 01:27:41;;;;;;;;;;;;;;;28.45;47.28;98389.63;2087923;28;20460;-46
2022/06/29 01:28:46;;;;;;;;;;;;;;;28.46;47.17;98391.25;2084259;28;19931;-47
2022/06/29 01:29:46;;;;;;;;;;;;;;;28.46;47.29;98388.53;2089562;28;19935;-47
2022/06/29 01:30:48;;;;;;;;;;;;;;;28.47;47.28;98387.41;2087498;28;19940;-46
2022/06/29 01:31:53;;;;;;;;;;;;;;;28.46;47.44;98385.78;2090210;28;19928;-48
2022/06/29 01:32:55;;;;;;;;;;;;;;;28.46;47.35;98383.06;2087869;28;19939;-47
2022/06/29 01:33:55;;;;;;;;;;;;;;;28.45;47.37;98384.16;2090476;28;19932;-47
2022/06/29 01:34:57;;;;;;;;;;;;;;;28.46;47.17;98386.59;2082623;28;20417;-49
2022/06/29 01:35:57;;;;;;;;;;;;;;;28.46;46.99;98386.59;2088589;28;19932;-47
2022/06/29 01:36:59;;;;;;;;;;;;;;;28.44;47.02;98383.31;2086170;28;21034;-47
2022/06/29 01:38:01;;;;;;;;;;;;;;;28.44;47.16;98383.31;2090038;28;19924;-49
2022/06/29 01:39:03;;;;;;;;;;;;;;;28.46;46.99;98388.53;2086578;28;19932;-51
2022/06/29 01:40:04;;;;;;;;;;;;;;;28.46;46.99;98388.53;2084701;28;19932;-47
2022/06/29 01:41:07;;;;;;;;;;;;;;;28.45;47.36;98389.63;2089615;28;19944;-48
2022/06/29 01:42:09;;;;;;;;;;;;;;;28.44;47.17;98385.25;2088652;28;19966;-46
2022/06/29 01:43:10;;;;;;;;;;;;;;;28.44;47.17;98380.59;2089896;28;20461;-50
2022/06/29 01:44:12;;;;;;;;;;;;;;;28.44;47.08;98382.53;2086287;28;19933;-50
2022/06/29 01:45:12;;;;;;;;;;;;;;;28.44;47.22;98382.53;2087186;28;20566;-48
2022/06/29 01:46:14;;;;;;;;;;;;;;;28.43;47.31;98381.72;2088382;28;19925;-47
2022/06/29 01:47:15;;;;;;;;;;;;;;;28.42;47.38;98380.09;2090846;28;19939;-48
2022/06/29 01:48:16;;;;;;;;;;;;;;;28.44;47.14;98382.53;2086312;28;20398;-49
2022/06/29 01:49:18;;;;;;;;;;;;;;;28.43;47.06;98378.97;2089387;28;19924;-48
2022/06/29 01:50:19;;;;;;;;;;;;;;;28.44;47.36;98382.53;2091815;28;19931;-50
2022/06/29 01:51:20;;;;;;;;;;;;;;;28.43;47.04;98381.72;2084149;28;19928;-49
2022/06/29 01:52:21;;;;;;;;;;;;;;;28.43;47.29;98381.72;2085915;28;19928;-46
2022/06/29 01:53:24;;;;;;;;;;;;;;;28.42;47.23;98380.09;2090796;28;19931;-48
2022/06/29 01:54:24;;;;;;;;;;;;;;;28.42;47.31;98380.09;2085672;28;19951;-46
2022/06/29 01:55:26;;;;;;;;;;;;;;;28.41;47.28;98378.41;2090391;28;20297;-51
2022/06/29 01:56:26;;;;;;;;;;;;;;;28.41;47.26;98375.66;2090870;28;19933;-48
2022/06/29 01:57:28;;;;;;;;;;;;;;;28.40;47.21;98374.03;2090132;28;19935;-47
2022/06/29 01:58:29;;;;;;;;;;;;;;;28.40;47.21;98376.78;2088790;28;19929;-49
2022/06/29 01:59:30;;;;;;;;;;;;;;;28.42;47.24;98384.69;2091636;28;19924;-50
2022/06/29 02:00:31;;;;;;;;;;;;;;;28.41;47.23;98383.84;2085881;28;19937;-50
2022/06/29 02:01:33;;;;;;;;;;;;;;;28.42;46.99;98380.09;2089631;28;19925;-49
2022/06/29 02:02:33;;;;;;;;;;;;;;;28.43;47.17;98378.16;2082824;28;19935;-48
2022/06/29 02:03:35;;;;;;;;;;;;;;;28.42;47.04;98384.69;2089184;28;19976;-48
2022/06/29 02:04:35;;;;;;;;;;;;;;;28.42;47.19;98381.97;2084159;28;19932;-49
2022/06/29 02:05:37;;;;;;;;;;;;;;;28.40;47.21;98384.16;2085166;28;19928;-47
2022/06/29 02:06:37;;;;;;;;;;;;;;;28.39;47.19;98377.88;2086215;28;19925;-49
2022/06/29 02:07:39;;;;;;;;;;;;;;;28.39;47.15;98385.22;2088770;28;20475;-47
2022/06/29 02:08:41;;;;;;;;;;;;;;;28.40;47.25;98375.97;2084029;28;19959;-51
2022/06/29 02:09:42;;;;;;;;;;;;;;;28.41;47.42;98370.22;2087821;28;20378;-47
2022/06/29 02:10:43;;;;;;;;;;;;;;;28.41;47.17;98372.13;2090706;28;19932;-47
2022/06/29 02:11:45;;;;;;;;;;;;;;;28.41;47.24;98377.59;2090415;28;19931;-48
2022/06/29 02:12:45;;;;;;;;;;;;;;;28.39;47.15;98379.75;2090341;28;19940;-45
2022/06/29 02:13:47;;;;;;;;;;;;;;;28.40;47.26;98370.50;2088410;28;20031;-48
2022/06/29 02:14:47;;;;;;;;;;;;;;;28.40;47.45;98370.50;2087462;28;20073;-48
2022/06/29 02:15:49;;;;;;;;;;;;;;;28.40;47.46;98368.59;2086649;28;19935;-50
2022/06/29 02:16:50;;;;;;;;;;;;;;;28.40;47.36;98373.22;2088487;28;20301;-46
2022/06/29 02:17:51;;;;;;;;;;;;;;;28.40;47.33;98373.22;2089926;28;19966;-50
2022/06/29 02:18:52;;;;;;;;;;;;;;;28.41;47.45;98369.41;2083646;28;20091;-48
2022/06/29 02:19:53;;;;;;;;;;;;;;;28.40;47.05;98362.31;2088171;28;20062;-50
2022/06/29 02:20:54;;;;;;;;;;;;;;;28.40;47.29;98365.06;2088772;28;19933;-49
2022/06/29 02:21:56;;;;;;;;;;;;;;;28.39;47.26;98368.84;2087924;28;19937;-48
2022/06/29 02:22:56;;;;;;;;;;;;;;;28.39;47.35;98368.84;2093058;28;19939;-48
2022/06/29 02:23:59;;;;;;;;;;;;;;;28.38;47.07;98368.03;2088303;28;19929;-48
2022/06/29 02:25:00;;;;;;;;;;;;;;;28.39;47.37;98368.84;2083023;28;19939;-48
2022/06/29 02:26:01;;;;;;;;;;;;;;;28.39;47.12;98369.69;2085840;28;19925;-49
2022/06/29 02:27:02;;;;;;;;;;;;;;;28.38;47.29;98367.22;2087363;28;19935;-47
2022/06/29 02:28:04;;;;;;;;;;;;;;;28.37;47.34;98360.97;2088621;28;19924;-48
2022/06/29 02:29:05;;;;;;;;;;;;;;;28.39;47.00;98368.84;2086599;28;19932;-50
2022/06/29 02:30:07;;;;;;;;;;;;;;;28.38;47.18;98370.75;2087009;28;20607;-48
2022/06/29 02:35:05;;;;;;;;;;;;;;;28.36;47.28;98372.97;2086231;28;19933;-46
2022/06/29 02:36:07;;;;;;;;;;;;;;;28.36;47.38;98372.13;2083555;28;19936;-48
2022/06/29 02:37:08;;;;;;;;;;;;;;;28.37;47.27;98373.78;2085908;28;19933;-47
2022/06/29 02:38:09;;;;;;;;;;;;;;;28.36;47.07;98369.41;2085244;28;19960;-47
2022/06/29 02:39:11;;;;;;;;;;;;;;;28.36;47.34;98375.69;2082133;28;20248;-49
2022/06/29 02:40:13;;;;;;;;;;;;;;;28.35;47.20;98367.78;2087954;28;20096;-51
2022/06/29 02:41:13;;;;;;;;;;;;;;;28.37;47.42;98368.31;2088306;28;20274;-47
2022/06/29 02:42:15;;;;;;;;;;;;;;;28.37;47.00;98366.41;2073990;28;20051;-51
2022/06/29 02:43:16;;;;;;;;;;;;;;;28.34;47.11;98366.97;2080574;28;20008;-46
2022/06/29 02:44:18;;;;;;;;;;;;;;;28.35;47.27;98365.84;2087224;28;19952;-47
2022/06/29 02:45:18;;;;;;;;;;;;;;;28.34;47.52;98364.22;2085598;28;19928;-48
2022/06/29 02:46:20;;;;;;;;;;;;;;;28.36;47.46;98366.66;2084102;28;20703;-49
2022/06/29 02:47:20;;;;;;;;;;;;;;;28.35;47.13;98365.84;2088893;28;19955;-47
2022/06/29 02:48:22;;;;;;;;;;;;;;;28.35;47.17;98360.41;2084737;28;20528;-47
2022/06/29 02:49:22;;;;;;;;;;;;;;;28.35;47.36;98356.88;2085587;28;19925;-46
2022/06/29 02:50:24;;;;;;;;;;;;;;;28.34;47.43;98363.44;2082340;28;19935;-46
2022/06/29 02:51:25;;;;;;;;;;;;;;;28.33;47.26;98365.31;2086541;28;19928;-48
2022/06/29 02:52:27;;;;;;;;;;;;;;;28.33;47.11;98362.59;2088052;28;20338;-47
2022/06/29 02:53:27;;;;;;;;;;;;;;;28.31;47.37;98361.25;2088823;28;19935;-47
2022/06/29 02:54:30;;;;;;;;;;;;;;;28.32;47.12;98363.69;2084722;28;19935;-47
2022/06/29 02:55:31;;;;;;;;;;;;;;;28.33;47.34;98365.31;2088694;28;19928;-47
2022/06/29 02:56:32;;;;;;;;;;;;;;;28.34;47.37;98363.44;2082490;28;19931;-47
2022/06/29 02:57:33;;;;;;;;;;;;;;;28.33;47.16;98359.03;2083219;28;19925;-48
2022/06/29 02:58:34;;;;;;;;;;;;;;;28.33;47.44;98359.03;2087358;28;19928;-46
2022/06/29 02:59:35;;;;;;;;;;;;;;;28.33;47.30;98364.50;2085015;28;19925;-51
2022/06/29 03:00:37;;;;;;;;;;;;;;;28.34;47.24;98357.97;2087375;28;23445;-49
2022/06/29 03:01:37;;;;;;;;;;;;;;;28.33;47.25;98353.59;2087542;28;20708;-47
2022/06/29 03:02:39;;;;;;;;;;;;;;;28.32;47.24;98360.16;2085106;28;19933;-48
2022/06/29 03:03:40;;;;;;;;;;;;;;;28.32;47.33;98362.88;2088517;28;19940;-49
2022/06/29 03:04:42;;;;;;;;;;;;;;;28.31;47.53;98362.06;2081311;28;19932;-48
2022/06/29 03:05:42;;;;;;;;;;;;;;;28.33;47.17;98361.75;2086456;28;21372;-47
2022/06/29 03:06:44;;;;;;;;;;;;;;;28.32;47.31;98371.06;2088020;28;19945;-47
2022/06/29 03:07:44;;;;;;;;;;;;;;;28.32;47.37;98368.31;2084556;28;20490;-54
2022/06/29 03:08:46;;;;;;;;;;;;;;;28.28;47.54;98368.06;2088624;28;19925;-49
2022/06/29 03:09:48;;;;;;;;;;;;;;;28.31;47.34;98377.63;2086504;28;20509;-47
2022/06/29 03:10:50;;;;;;;;;;;;;;;28.28;47.51;98374.34;2088410;28;19954;-47
2022/06/29 03:11:50;;;;;;;;;;;;;;;28.31;47.41;98374.88;2087689;28;19925;-48
2022/06/29 03:12:52;;;;;;;;;;;;;;;28.31;47.41;98378.44;2087849;28;20330;-46
2022/06/29 03:13:53;;;;;;;;;;;;;;;28.29;47.35;98370.50;2089033;28;20274;-49
2022/06/29 03:14:54;;;;;;;;;;;;;;;28.30;47.25;98371.31;2087003;28;19964;-48
2022/06/29 03:15:55;;;;;;;;;;;;;;;28.32;47.27;98379.22;2085966;28;19925;-49
2022/06/29 03:16:57;;;;;;;;;;;;;;;28.28;47.52;98370.78;2087461;28;20275;-47
2022/06/29 03:17:58;;;;;;;;;;;;;;;28.28;47.07;98374.34;2088686;28;20319;-50
2022/06/29 03:18:59;;;;;;;;;;;;;;;28.27;47.32;98372.69;2084081;28;19932;-48
2022/06/29 03:20:01;;;;;;;;;;;;;;;28.29;47.25;98375.97;2084415;28;19952;-50
2022/06/29 03:21:03;;;;;;;;;;;;;;;28.28;47.43;98377.06;2086558;28;19928;-49
2022/06/29 03:22:03;;;;;;;;;;;;;;;28.28;47.46;98374.34;2089872;28;20539;-48
2022/06/29 03:23:05;;;;;;;;;;;;;;;28.28;47.41;98377.06;2090637;28;19932;-47
2022/06/29 03:24:05;;;;;;;;;;;;;;;28.28;47.55;98374.34;2089096;28;19932;-47
2022/06/29 03:25:09;;;;;;;;;;;;;;;28.31;46.96;98369.44;2089788;28;19925;-48
2022/06/29 03:26:09;;;;;;;;;;;;;;;28.30;47.19;98371.31;2089809;28;19940;-48
2022/06/29 03:27:11;;;;;;;;;;;;;;;28.29;47.53;98373.22;2087783;28;19924;-50
2022/06/29 03:28:12;;;;;;;;;;;;;;;28.29;47.40;98375.16;2089837;28;19928;-47
2022/06/29 03:29:14;;;;;;;;;;;;;;;28.28;47.36;98377.06;2085060;28;20027;-50
2022/06/29 03:30:15;;;;;;;;;;;;;;;28.29;47.31;98375.97;2087624;28;20002;-50
2022/06/29 03:31:16;;;;;;;;;;;;;;;28.30;46.99;98374.03;2088774;28;19994;-47
2022/06/29 03:32:17;;;;;;;;;;;;;;;28.28;47.27;98371.59;2090099;28;19928;-46
2022/06/29 03:33:19;;;;;;;;;;;;;;;28.31;46.97;98377.63;2086577;28;20425;-48
2022/06/29 03:34:19;;;;;;;;;;;;;;;28.28;47.28;98371.59;2086378;28;19936;-48
2022/06/29 03:35:21;;;;;;;;;;;;;;;28.27;47.12;98377.31;2084182;28;19925;-49
2022/06/29 03:36:22;;;;;;;;;;;;;;;28.31;47.24;98369.44;2084991;28;19928;-51
2022/06/29 03:37:23;;;;;;;;;;;;;;;28.27;47.32;98378.13;2090238;28;20411;-46
2022/06/29 03:38:25;;;;;;;;;;;;;;;28.26;47.35;98373.78;2076484;28;20069;-50
2022/06/29 03:39:25;;;;;;;;;;;;;;;28.27;47.23;98377.31;2088669;28;19939;-50
2022/06/29 03:40:28;;;;;;;;;;;;;;;28.26;47.19;98378.41;2089399;28;19925;-46
2022/06/29 03:41:29;;;;;;;;;;;;;;;28.27;47.38;98374.59;2091436;28;19976;-46
2022/06/29 03:42:30;;;;;;;;;;;;;;;28.27;47.23;98371.88;2087318;28;19944;-45
2022/06/29 03:43:31;;;;;;;;;;;;;;;28.27;47.22;98369.13;2092154;28;19928;-46
2022/06/29 03:44:33;;;;;;;;;;;;;;;28.26;47.11;98381.97;2088146;28;20350;-46
2022/06/29 03:45:33;;;;;;;;;;;;;;;28.26;47.24;98372.97;2087220;28;19928;-47
2022/06/29 03:46:35;;;;;;;;;;;;;;;28.26;47.50;98373.78;2085865;28;19930;-48
2022/06/29 03:47:35;;;;;;;;;;;;;;;28.25;47.20;98369.44;2089175;28;19935;-46
2022/06/29 03:48:37;;;;;;;;;;;;;;;28.25;47.30;98372.16;2084736;28;19928;-47
2022/06/29 03:49:38;;;;;;;;;;;;;;;28.26;47.16;98370.25;2091347;28;19929;-48
2022/06/29 03:50:39;;;;;;;;;;;;;;;28.23;47.27;98371.59;2087232;28;20294;-49
2022/06/29 03:51:40;;;;;;;;;;;;;;;28.24;47.54;98365.03;2088964;28;19933;-49
2022/06/29 03:52:41;;;;;;;;;;;;;;;28.24;47.59;98369.69;2090510;28;19982;-48
2022/06/29 03:53:42;;;;;;;;;;;;;;;28.22;47.47;98363.69;2092476;28;20398;-50
2022/06/29 03:54:43;;;;;;;;;;;;;;;28.22;47.07;98364.53;2089770;28;20012;-48
2022/06/29 03:55:45;;;;;;;;;;;;;;;28.22;47.34;98363.69;2090796;28;20047;-47
2022/06/29 03:56:47;;;;;;;;;;;;;;;28.22;47.42;98364.53;2078503;28;20987;-46
2022/06/29 03:57:48;;;;;;;;;;;;;;;28.22;47.31;98372.69;2082731;28;19924;-50
2022/06/29 03:58:49;;;;;;;;;;;;;;;28.21;47.51;98368.31;2088955;28;20279;-48
2022/06/29 03:59:50;;;;;;;;;;;;;;;28.23;47.26;98365.34;2093579;28;19939;-50
2022/06/29 04:00:52;;;;;;;;;;;;;;;28.21;47.49;98365.59;2089925;28;20012;-47
2022/06/29 04:01:52;;;;;;;;;;;;;;;28.22;47.15;98369.97;2089958;28;19967;-50
2022/06/29 04:02:54;;;;;;;;;;;;;;;28.20;47.25;98372.16;2090314;28;20591;-46
2022/06/29 04:03:56;;;;;;;;;;;;;;;28.21;47.42;98367.50;2085950;28;19924;-47
2022/06/29 04:04:58;;;;;;;;;;;;;;;28.18;47.46;98376.25;2092175;28;20473;-47
2022/06/29 04:05:59;;;;;;;;;;;;;;;28.17;47.38;98371.88;2083331;28;20027;-48
2022/06/29 04:07:00;;;;;;;;;;;;;;;28.17;47.67;98372.69;2089315;28;19940;-47
2022/06/29 04:08:02;;;;;;;;;;;;;;;28.17;47.53;98369.97;2095828;28;19925;-46
2022/06/29 04:09:03;;;;;;;;;;;;;;;28.20;47.63;98368.63;2097651;28;19928;-49
2022/06/29 04:10:05;;;;;;;;;;;;;;;28.17;47.32;98372.69;2095716;28;19935;-48
2022/06/29 04:11:48;;;;;;;;;;;;;;;28.21;47.27;98378.41;2093366;28;19935;-49
2022/06/29 04:12:29;;;;;;;;;;;;;;;28.19;47.28;98369.69;2092001;28;19932;-47
2022/06/29 04:13:30;;;;;;;;;;;;;;;28.19;47.60;98369.69;2091567;28;20030;-49
2022/06/29 04:14:31;;;;;;;;;;;;;;;28.18;47.61;98368.88;2088775;28;20271;-50
2022/06/29 04:15:34;;;;;;;;;;;;;;;28.21;46.98;98362.06;2089963;28;19928;-48
2022/06/29 04:16:35;;;;;;;;;;;;;;;28.19;47.37;98365.03;2086325;28;20072;-48
2022/06/29 04:17:37;;;;;;;;;;;;;;;28.19;47.46;98373.22;2089898;28;20394;-48
2022/06/29 04:18:37;;;;;;;;;;;;;;;28.20;47.58;98376.78;2089484;28;19940;-50
2022/06/29 04:19:39;;;;;;;;;;;;;;;28.20;47.45;98372.16;2087355;28;21107;-52
2022/06/29 04:21:59;;;;;;;;;;;;;;;28.17;47.25;98372.69;2090686;28;19948;-48
2022/06/29 04:23:01;;;;;;;;;;;;;;;28.17;47.59;98378.16;2089819;28;19939;-48
2022/06/29 04:24:03;;;;;;;;;;;;;;;28.15;47.53;98372.16;2090296;28;19933;-45
2022/06/29 04:25:05;;;;;;;;;;;;;;;28.18;47.50;98370.78;2092659;28;19928;-49
2022/06/29 04:26:07;;;;;;;;;;;;;;;28.17;47.35;98378.16;2090490;28;20023;-50
2022/06/29 04:27:08;;;;;;;;;;;;;;;28.17;47.44;98372.69;2090982;28;20332;-47
2022/06/29 04:28:09;;;;;;;;;;;;;;;28.17;47.32;98374.63;2090146;28;19932;-50
2022/06/29 04:29:10;;;;;;;;;;;;;;;28.17;47.24;98377.34;2088456;28;20420;-48
2022/06/29 04:30:11;;;;;;;;;;;;;;;28.14;47.59;98384.16;2090987;28;19924;-49
2022/06/29 04:31:13;;;;;;;;;;;;;;;28.16;47.52;98376.50;2088109;28;19928;-47
2022/06/29 04:32:14;;;;;;;;;;;;;;;28.16;47.47;98381.94;2090793;28;20444;-47
2022/06/29 04:33:15;;;;;;;;;;;;;;;28.15;47.28;98374.88;2091372;28;20019;-47
2022/06/29 04:34:16;;;;;;;;;;;;;;;28.15;47.55;98377.59;2083401;28;20552;-49
2022/06/29 04:35:17;;;;;;;;;;;;;;;28.15;47.23;98384.97;2087832;28;19931;-48
2022/06/29 04:36:18;;;;;;;;;;;;;;;28.15;47.21;98379.50;2091805;28;19932;-48
2022/06/29 04:37:19;;;;;;;;;;;;;;;28.13;47.71;98381.69;2090636;28;20390;-49
2022/06/29 04:38:20;;;;;;;;;;;;;;;28.13;47.54;98382.50;2092526;28;19928;-49
2022/06/29 04:39:22;;;;;;;;;;;;;;;28.15;47.23;98371.34;2090174;28;19963;-48
2022/06/29 04:40:22;;;;;;;;;;;;;;;28.12;47.50;98369.97;2084370;28;19934;-49
2022/06/29 04:41:25;;;;;;;;;;;;;;;28.10;47.25;98379.50;2089840;28;20746;-48
2022/06/29 04:42:26;;;;;;;;;;;;;;;28.11;47.53;98384.69;2090892;28;20456;-49
2022/06/29 04:43:29;;;;;;;;;;;;;;;28.14;47.26;98375.97;2089998;28;19928;-47
2022/06/29 04:44:30;;;;;;;;;;;;;;;28.12;47.66;98378.16;2087951;28;20327;-47
2022/06/29 04:46:50;;;;;;;;;;;;;;;28.14;47.35;98384.16;2090411;28;19947;-50
2022/06/29 04:47:51;;;;;;;;;;;;;;;28.14;47.51;98383.31;2091219;28;19939;-49
2022/06/29 04:48:55;;;;;;;;;;;;;;;28.13;47.69;98381.69;2087021;28;20047;-51
2022/06/29 04:49:55;;;;;;;;;;;;;;;28.11;47.42;98383.84;2086452;28;19968;-47
2022/06/29 04:50:57;;;;;;;;;;;;;;;28.10;47.54;98383.03;2086863;28;20424;-47
2022/06/29 04:51:57;;;;;;;;;;;;;;;28.13;47.49;98377.03;2088008;28;19925;-49
2022/06/29 04:52:59;;;;;;;;;;;;;;;28.12;47.64;98378.16;2090352;28;19990;-48
2022/06/29 04:54:00;;;;;;;;;;;;;;;28.10;47.62;98377.59;2090742;28;20340;-47
2022/06/29 04:55:02;;;;;;;;;;;;;;;28.12;47.43;98382.78;2090694;28;20042;-48
2022/06/29 04:56:03;;;;;;;;;;;;;;;28.11;47.63;98383.84;2092054;28;19928;-49
2022/06/29 04:57:07;;;;;;;;;;;;;;;28.10;47.26;98379.50;2089327;28;20353;-48
2022/06/29 04:58:07;;;;;;;;;;;;;;;28.11;47.44;98384.69;2088763;28;19928;-50
2022/06/29 04:59:09;;;;;;;;;;;;;;;28.09;47.59;98384.16;2090428;28;19998;-48
2022/06/29 05:00:10;;;;;;;;;;;;;;;28.09;47.52;98378.69;2090079;28;19943;-50
2022/06/29 05:01:12;;;;;;;;;;;;;;;28.10;47.73;98380.31;2086704;28;19933;-49
2022/06/29 05:02:13;;;;;;;;;;;;;;;28.11;47.62;98378.41;2087646;28;19920;-51
2022/06/29 05:03:14;;;;;;;;;;;;;;;28.12;47.21;98377.34;2090360;28;20837;-48
2022/06/29 05:05:34;;;;;;;;;;;;;;;28.08;47.54;98382.50;2082456;28;19929;-46
2022/06/29 05:06:36;;;;;;;;;;;;;;;28.07;47.69;98381.69;2084566;28;19928;-50
2022/06/29 05:07:36;;;;;;;;;;;;;;;28.07;47.68;98381.69;2088956;28;19925;-47
2022/06/29 05:08:38;;;;;;;;;;;;;;;28.08;47.60;98374.31;2089448;28;19925;-47
2022/06/29 05:09:38;;;;;;;;;;;;;;;28.10;47.49;98374.88;2092612;28;19963;-49
2022/06/29 05:10:40;;;;;;;;;;;;;;;28.09;47.64;98378.69;2089140;28;19963;-48
2022/06/29 05:11:41;;;;;;;;;;;;;;;28.07;47.63;98378.16;2087545;28;19932;-49
2022/06/29 05:12:43;;;;;;;;;;;;;;;28.07;47.26;98376.22;2091580;28;19928;-47
2022/06/29 05:13:45;;;;;;;;;;;;;;;28.10;47.19;98372.13;2091692;28;20030;-50
2022/06/29 05:14:46;;;;;;;;;;;;;;;28.07;47.47;98378.16;2089020;28;19929;-49
2022/06/29 05:15:47;;;;;;;;;;;;;;;28.06;47.43;98379.25;2086352;28;19967;-47
2022/06/29 05:16:49;;;;;;;;;;;;;;;28.06;47.73;98381.97;2075075;28;21304;-47
2022/06/29 05:17:49;;;;;;;;;;;;;;;28.04;47.77;98384.94;2087649;28;20634;-51
2022/06/29 05:18:51;;;;;;;;;;;;;;;28.04;47.81;98382.22;2090088;28;19935;-48
2022/06/29 05:19:52;;;;;;;;;;;;;;;28.06;47.78;98381.97;2087791;28;21389;-48
2022/06/29 05:20:53;;;;;;;;;;;;;;;28.07;47.68;98383.59;2089846;28;19931;-49
2022/06/29 05:21:54;;;;;;;;;;;;;;;28.05;47.43;98388.50;2086541;28;19924;-48
2022/06/29 05:22:55;;;;;;;;;;;;;;;28.04;47.60;98379.50;2086847;28;19932;-52
2022/06/29 05:23:56;;;;;;;;;;;;;;;28.07;47.31;98381.69;2089854;28;20316;-49
2022/06/29 05:24:57;;;;;;;;;;;;;;;28.05;47.52;98378.44;2087237;28;19928;-47
2022/06/29 05:25:58;;;;;;;;;;;;;;;28.05;47.62;98389.34;2086030;28;19928;-48
2022/06/29 05:27:00;;;;;;;;;;;;;;;28.05;47.62;98383.88;2087976;28;20683;-48
2022/06/29 05:28:02;;;;;;;;;;;;;;;28.06;47.31;98385.50;2088897;28;20236;-48